Time;durP1;ratioP1;P1;durP2;ratioP2;P2;SDS_P1;SDS_P2;PMS_P1;PMS_P2;Temp;Humidity;BMP_temperature;BMP_pressure;BME280_temperature;BME280_humidity;BME280_pressure;Samples;Min_cycle;Max_cycle;Signal;HPM_P1;HPM_P2
2023/04/22 00:00:16;;;;;;;1999.90;999.90;;;11.20;99.90;;;;;;5009946;28;20569;-90
2023/04/22 00:02:42;;;;;;;1999.90;999.90;;;11.10;99.90;;;;;;5011545;28;20061;-89
2023/04/22 00:05:12;;;;;;;1999.90;999.90;;;11.10;99.90;;;;;;5008195;28;20053;-90
2023/04/22 00:07:38;;;;;;;1999.90;999.90;;;11.00;99.90;;;;;;4993615;28;20144;-90
2023/04/22 00:10:04;;;;;;;1999.90;999.90;;;10.90;99.90;;;;;;4991919;28;20121;-90
2023/04/22 00:12:30;;;;;;;1999.90;999.90;;;10.80;99.90;;;;;;4993579;28;20176;-90
2023/04/22 00:14:56;;;;;;;1999.90;999.90;;;10.80;99.90;;;;;;4992506;28;20073;-89
2023/04/22 00:17:22;;;;;;;1999.90;999.90;;;10.70;99.90;;;;;;5010705;28;20042;-90
2023/04/22 00:19:47;;;;;;;1999.90;999.90;;;10.70;99.90;;;;;;5010487;28;20049;-90
2023/04/22 00:22:13;;;;;;;1999.90;999.90;;;10.70;99.90;;;;;;5010863;28;20049;-90
2023/04/22 00:24:38;;;;;;;1999.90;999.90;;;10.60;99.90;;;;;;5010827;28;20042;-90
2023/04/22 00:27:04;;;;;;;1999.90;999.90;;;10.60;99.90;;;;;;4992901;28;20394;-90
2023/04/22 00:29:30;;;;;;;1999.90;999.90;;;10.50;99.90;;;;;;5010522;28;20045;-90
2023/04/22 00:31:55;;;;;;;1999.90;999.90;;;10.40;99.90;;;;;;4992881;28;20037;-90
2023/04/22 00:34:21;;;;;;;1999.90;999.90;;;10.40;99.90;;;;;;4984902;28;20038;-89
2023/04/22 00:36:47;;;;;;;1999.90;999.90;;;10.30;99.90;;;;;;5008872;28;20042;-90
2023/04/22 00:39:13;;;;;;;1999.90;999.90;;;10.30;99.90;;;;;;5010148;28;20041;-90
2023/04/22 00:41:39;;;;;;;1999.90;999.90;;;10.20;99.90;;;;;;4993422;28;20042;-89
2023/04/22 00:44:07;;;;;;;1999.90;999.90;;;10.20;99.90;;;;;;5009314;28;20503;-89
2023/04/22 00:46:34;;;;;;;1999.90;999.90;;;10.20;99.90;;;;;;5010689;28;20046;-88
2023/04/22 00:49:00;;;;;;;1999.90;999.90;;;10.10;99.90;;;;;;4991138;28;20046;-89
2023/04/22 00:51:26;;;;;;;1999.90;999.90;;;10.10;99.90;;;;;;4992792;28;20052;-90
2023/04/22 00:53:52;;;;;;;1999.90;999.90;;;10.00;99.90;;;;;;5008860;28;20038;-89
2023/04/22 00:56:19;;;;;;;1999.90;999.90;;;9.90;99.90;;;;;;4977223;28;20042;-89
2023/04/22 00:58:45;;;;;;;1999.90;999.90;;;9.90;99.90;;;;;;5010486;28;20050;-89
2023/04/22 01:01:11;;;;;;;1999.90;999.90;;;9.80;99.90;;;;;;5009981;28;20436;-90
2023/04/22 01:03:39;;;;;;;1999.90;999.90;;;9.80;99.90;;;;;;4992455;28;20034;-89
2023/04/22 01:06:05;;;;;;;1999.90;999.90;;;9.80;99.90;;;;;;5009761;28;20137;-89
2023/04/22 01:08:31;;;;;;;1999.90;999.90;;;9.90;99.90;;;;;;4992927;28;20042;-89
2023/04/22 01:10:57;;;;;;;1999.90;999.90;;;9.90;99.90;;;;;;5010384;28;20042;-89
2023/04/22 01:13:23;;;;;;;1999.90;999.90;;;9.80;99.90;;;;;;4991881;28;20461;-89
2023/04/22 01:15:50;;;;;;;1999.90;999.90;;;9.90;99.90;;;;;;5010623;28;20525;-89
2023/04/22 01:18:17;;;;;;;1999.90;999.90;;;9.90;99.90;;;;;;5009509;28;20116;-88
2023/04/22 01:20:43;;;;;;;1999.90;999.90;;;9.90;99.90;;;;;;4993025;28;20042;-89
2023/04/22 01:23:21;;;;;;;1999.90;999.90;;;10.00;99.90;;;;;;4994648;28;20048;-90
2023/04/22 01:25:48;;;;;;;1999.90;999.90;;;10.00;99.90;;;;;;5013843;28;20073;-89
2023/04/22 01:28:15;;;;;;;1999.90;999.90;;;10.00;99.90;;;;;;5014075;28;20084;-88
2023/04/22 01:30:42;;;;;;;1999.90;999.90;;;10.00;99.90;;;;;;4996500;28;20052;-89
2023/04/22 01:33:09;;;;;;;1999.90;999.90;;;10.10;99.90;;;;;;4988742;28;20360;-89
2023/04/22 01:35:35;;;;;;;1999.90;999.90;;;10.10;99.90;;;;;;4994757;28;20045;-88
2023/04/22 01:38:06;;;;;;;1999.90;999.90;;;10.00;99.90;;;;;;5002171;28;20034;-89
2023/04/22 01:40:32;;;;;;;1999.90;999.90;;;10.00;99.90;;;;;;5016869;28;20045;-89
2023/04/22 01:42:59;;;;;;;1999.90;999.90;;;9.90;99.90;;;;;;4981768;28;20052;-89
2023/04/22 01:45:25;;;;;;;1999.90;999.90;;;9.90;99.90;;;;;;5017445;28;20042;-89
2023/04/22 01:47:52;;;;;;;1999.90;999.90;;;9.80;99.90;;;;;;5002291;28;20046;-90
2023/04/22 01:50:17;;;;;;;1999.90;999.90;;;9.70;99.90;;;;;;5017532;28;20132;-89
2023/04/22 01:52:43;;;;;;;1999.90;999.90;;;9.70;99.90;;;;;;5017098;28;20085;-88
2023/04/22 01:55:09;;;;;;;1999.90;999.90;;;9.60;99.90;;;;;;5006935;28;20397;-88
2023/04/22 01:57:35;;;;;;;1999.90;999.90;;;9.60;99.90;;;;;;5020952;28;20046;-89
2023/04/22 02:00:00;;;;;;;1999.90;999.90;;;9.60;99.90;;;;;;4998986;28;20506;-89
2023/04/22 02:02:26;;;;;;;1999.90;999.90;;;9.60;99.90;;;;;;4995027;28;20053;-89
2023/04/22 02:04:52;;;;;;;1999.90;999.90;;;9.50;99.90;;;;;;5012971;28;20048;-89
2023/04/22 02:07:18;;;;;;;1999.90;999.90;;;9.50;99.90;;;;;;5012971;28;20077;-89
2023/04/22 02:09:43;;;;;;;1999.90;999.90;;;9.40;99.90;;;;;;5012016;28;20434;-90
2023/04/22 02:12:09;;;;;;;1999.90;999.90;;;9.40;99.90;;;;;;5010214;28;20061;-89
2023/04/22 02:14:34;;;;;;;1999.90;999.90;;;9.40;99.90;;;;;;5012929;28;20037;-89
2023/04/22 02:17:01;;;;;;;1999.90;999.90;;;9.30;99.90;;;;;;4994532;28;20073;-89
2023/04/22 02:19:27;;;;;;;1999.90;999.90;;;9.20;99.90;;;;;;4995523;28;20046;-89
2023/04/22 02:21:53;;;;;;;1999.90;999.90;;;9.20;99.90;;;;;;5012035;28;20038;-89
2023/04/22 02:24:19;;;;;;;1999.90;999.90;;;9.20;99.90;;;;;;5011754;28;20047;-89
2023/04/22 02:26:46;;;;;;;1999.90;999.90;;;9.10;99.90;;;;;;5012521;28;20041;-89
2023/04/22 02:29:12;;;;;;;1999.90;999.90;;;9.10;99.90;;;;;;4978125;28;20398;-89
2023/04/22 02:31:37;;;;;;;1999.90;999.90;;;9.10;99.90;;;;;;5012490;28;20046;-90
2023/04/22 02:34:03;;;;;;;1999.90;999.90;;;9.10;99.90;;;;;;5012286;28;20425;-89
2023/04/22 02:36:30;;;;;;;1999.90;999.90;;;9.10;99.90;;;;;;5011649;28;20061;-88
2023/04/22 02:38:56;;;;;;;1999.90;999.90;;;9.00;99.90;;;;;;5012106;28;20125;-89
2023/04/22 02:41:22;;;;;;;1999.90;999.90;;;9.00;99.90;;;;;;5012787;28;20037;-89
2023/04/22 02:43:48;;;;;;;1999.90;999.90;;;8.90;99.90;;;;;;4994124;28;20405;-89
2023/04/22 02:46:17;;;;;;;1999.90;999.90;;;8.90;99.90;;;;;;5012213;28;20072;-89
2023/04/22 02:48:42;;;;;;;1999.90;999.90;;;8.80;99.90;;;;;;5012537;28;20038;-90
2023/04/22 02:51:08;;;;;;;1999.90;999.90;;;8.80;99.90;;;;;;4992778;28;20228;-90
2023/04/22 02:53:34;;;;;;;1999.90;999.90;;;8.80;99.90;;;;;;4995381;28;20054;-89
2023/04/22 02:55:59;;;;;;;1999.90;999.90;;;8.70;99.90;;;;;;5011511;28;20561;-88
2023/04/22 02:58:25;;;;;;;1999.90;999.90;;;8.60;99.90;;;;;;5011329;28;20506;-89
2023/04/22 03:00:51;;;;;;;1999.90;999.90;;;8.50;99.90;;;;;;5012389;28;20048;-89
2023/04/22 03:03:17;;;;;;;1999.90;999.90;;;8.50;99.90;;;;;;4994175;28;20046;-90
2023/04/22 03:05:43;;;;;;;1999.90;999.90;;;8.40;99.90;;;;;;5011250;28;20034;-89
2023/04/22 03:08:09;;;;;;;1999.90;999.90;;;8.40;99.90;;;;;;4993923;28;20048;-89
2023/04/22 03:10:35;;;;;;;1999.90;999.90;;;8.30;99.90;;;;;;5011983;28;20041;-89
2023/04/22 03:13:01;;;;;;;1999.90;999.90;;;8.30;99.90;;;;;;5009034;28;20038;-89
2023/04/22 03:15:27;;;;;;;1999.90;999.90;;;8.30;99.90;;;;;;5012287;28;20401;-89
2023/04/22 03:17:53;;;;;;;1999.90;999.90;;;8.20;99.90;;;;;;4993388;28;20041;-88
2023/04/22 03:20:19;;;;;;;1999.90;999.90;;;8.20;99.90;;;;;;5011228;28;20041;-89
2023/04/22 03:22:45;;;;;;;1999.90;999.90;;;8.20;99.90;;;;;;5010908;28;20053;-90
2023/04/22 03:25:11;;;;;;;1999.90;999.90;;;8.30;99.90;;;;;;4992797;28;20394;-90
2023/04/22 03:27:36;;;;;;;1999.90;999.90;;;8.30;99.90;;;;;;5011859;28;20061;-90
2023/04/22 03:30:04;;;;;;;1999.90;999.90;;;8.30;99.90;;;;;;4992999;28;20081;-89
2023/04/22 03:32:29;;;;;;;1999.90;999.90;;;8.20;99.90;;;;;;5011504;28;20073;-90
2023/04/22 03:34:55;;;;;;;1999.90;999.90;;;8.30;99.90;;;;;;4992631;28;20069;-89
2023/04/22 03:37:21;;;;;;;1999.90;999.90;;;8.20;99.90;;;;;;5010616;28;20475;-89
2023/04/22 03:39:46;;;;;;;1999.90;999.90;;;8.20;99.90;;;;;;5011472;28;20049;-89
2023/04/22 03:42:13;;;;;;;1999.90;999.90;;;8.20;99.90;;;;;;4993450;28;20041;-89
2023/04/22 03:44:39;;;;;;;1999.90;999.90;;;8.10;99.90;;;;;;4994015;28;20030;-89
2023/04/22 03:47:04;;;;;;;1999.90;999.90;;;8.00;99.90;;;;;;4976442;28;20415;-88
2023/04/22 03:49:30;;;;;;;1999.90;999.90;;;8.00;99.90;;;;;;5009822;28;20390;-87
2023/04/22 03:51:56;;;;;;;1999.90;999.90;;;7.90;99.90;;;;;;4991538;28;20038;-88
2023/04/22 03:54:22;;;;;;;1999.90;999.90;;;7.90;99.90;;;;;;4993767;28;20046;-88
2023/04/22 03:56:47;;;;;;;1999.90;999.90;;;7.90;99.90;;;;;;5010898;28;20056;-89
2023/04/22 03:59:13;;;;;;;1999.90;999.90;;;7.80;99.90;;;;;;5010996;28;20096;-89
2023/04/22 04:01:38;;;;;;;1999.90;999.90;;;7.80;99.90;;;;;;4993720;28;20037;-89
2023/04/22 04:04:04;;;;;;;1999.90;999.90;;;7.80;99.90;;;;;;5010156;28;20080;-89
2023/04/22 04:06:30;;;;;;;1999.90;999.90;;;7.70;99.90;;;;;;5010644;28;20038;-89
2023/04/22 04:08:57;;;;;;;1999.90;999.90;;;7.70;99.90;;;;;;5011240;28;20042;-90
2023/04/22 04:11:22;;;;;;;1999.90;999.90;;;7.70;99.90;;;;;;4993819;28;20081;-89
2023/04/22 04:13:48;;;;;;;1999.90;999.90;;;7.70;99.90;;;;;;4993160;28;20089;-89
2023/04/22 04:16:15;;;;;;;1999.90;999.90;;;7.70;99.90;;;;;;4992830;28;20049;-90
2023/04/22 04:18:40;;;;;;;1999.90;999.90;;;7.70;99.90;;;;;;5009501;28;20438;-90
2023/04/22 04:21:06;;;;;;;1999.90;999.90;;;7.70;99.90;;;;;;4992167;28;20545;-89
2023/04/22 04:23:32;;;;;;;1999.90;999.90;;;7.70;99.90;;;;;;5011254;28;20085;-90
2023/04/22 04:26:01;;;;;;;1999.90;999.90;;;7.70;99.90;;;;;;5010335;28;20088;-90
2023/04/22 04:28:31;;;;;;;1999.90;999.90;;;7.80;99.90;;;;;;4993716;28;20045;-90
2023/04/22 04:30:57;;;;;;;1999.90;999.90;;;7.80;99.90;;;;;;5010287;28;20068;-89
2023/04/22 04:33:22;;;;;;;1999.90;999.90;;;7.80;99.90;;;;;;4993160;28;20046;-90
2023/04/22 04:35:48;;;;;;;1999.90;999.90;;;7.90;99.90;;;;;;5010656;28;20041;-89
2023/04/22 04:38:14;;;;;;;1999.90;999.90;;;8.00;99.90;;;;;;5010066;28;20511;-89
2023/04/22 04:40:44;;;;;;;1999.90;999.90;;;8.00;99.90;;;;;;4992608;28;20088;-89
2023/04/22 04:43:11;;;;;;;1999.90;999.90;;;8.00;99.90;;;;;;4992560;28;20049;-90
2023/04/22 04:45:37;;;;;;;1999.90;999.90;;;8.00;99.90;;;;;;5010776;28;20382;-90
2023/04/22 04:48:05;;;;;;;1999.90;999.90;;;8.00;99.90;;;;;;5010169;28;20383;-89
2023/04/22 04:50:32;;;;;;;1999.90;999.90;;;8.20;99.90;;;;;;4992329;28;20078;-89
2023/04/22 04:52:57;;;;;;;1999.90;999.90;;;8.20;99.90;;;;;;4975869;28;20056;-89
2023/04/22 04:55:23;;;;;;;1999.90;999.90;;;8.30;99.90;;;;;;5010750;28;20119;-90
2023/04/22 04:57:49;;;;;;;1999.90;999.90;;;8.40;99.90;;;;;;5014208;28;20076;-94
2023/04/22 05:00:15;;;;;;;1999.90;999.90;;;8.40;99.90;;;;;;5010767;28;20083;-94
2023/04/22 05:02:40;;;;;;;1999.90;999.90;;;8.50;99.90;;;;;;5020498;28;20489;-93
2023/04/22 05:05:06;;;;;;;1999.90;999.90;;;8.50;99.90;;;;;;4998964;28;20053;-94
2023/04/22 05:07:32;;;;;;;1999.90;999.90;;;8.60;99.90;;;;;;4999328;28;20046;-91
2023/04/22 05:09:59;;;;;;;1999.90;999.90;;;8.60;99.90;;;;;;4998178;28;20068;-92
2023/04/22 05:12:25;;;;;;;1999.90;999.90;;;8.70;99.90;;;;;;5013462;28;20616;-90
2023/04/22 05:14:50;;;;;;;1999.90;999.90;;;8.80;99.90;;;;;;5014551;28;20129;-96
2023/04/22 05:17:16;;;;;;;1999.90;999.90;;;8.80;99.90;;;;;;4996604;28;20559;-94
2023/04/22 05:19:41;;;;;;;1999.90;999.90;;;8.90;99.90;;;;;;5015625;28;20487;-93
2023/04/22 05:22:07;;;;;;;1999.90;999.90;;;9.00;99.90;;;;;;5021171;28;20038;-94
2023/04/22 05:24:33;;;;;;;1999.90;999.90;;;9.00;99.90;;;;;;5005000;28;20048;-95
2023/04/22 07:25:07;;;;;;;1999.90;999.90;;;12.10;99.90;;;;;;756663;22;20025;-86
2023/04/22 07:27:37;;;;;;;1999.90;999.90;;;12.20;99.90;;;;;;5008688;28;20046;-94
2023/04/22 07:30:05;;;;;;;1999.90;999.90;;;12.30;99.90;;;;;;4988197;28;20092;-95
2023/04/22 07:32:30;;;;;;;1999.90;999.90;;;12.40;99.90;;;;;;4991798;28;20402;-95
2023/04/22 07:34:56;;;;;;;1999.90;999.90;;;12.50;99.90;;;;;;5013721;28;20041;-95
2023/04/22 07:37:22;;;;;;;1999.90;999.90;;;12.60;99.90;;;;;;4982719;28;20073;-94
2023/04/22 07:39:47;;;;;;;1999.90;999.90;;;12.70;99.90;;;;;;4978595;28;20047;-94
2023/04/22 07:42:13;;;;;;;1999.90;999.90;;;12.80;99.90;;;;;;5001662;28;20042;-95
2023/04/22 07:44:38;;;;;;;1999.90;999.90;;;12.90;99.90;;;;;;4983108;28;20440;-94
2023/04/22 07:47:06;;;;;;;1999.90;999.90;;;12.90;99.90;;;;;;5004486;28;20048;-95
2023/04/22 07:49:32;;;;;;;1999.90;999.90;;;13.00;99.90;;;;;;4996084;28;20035;-89
